createdAt,value
2023-03-11T00:00:33.441Z,77.48
2023-03-11T00:01:33.423Z,76.95
2023-03-11T00:02:33.429Z,76.95
2023-03-11T00:03:33.445Z,77.06
2023-03-11T00:04:36.009Z,76.47
2023-03-11T00:05:33.534Z,77.51
2023-03-11T00:06:33.397Z,77.83
2023-03-11T00:07:33.406Z,78.14
2023-03-11T00:08:33.395Z,78.14
2023-03-11T00:09:33.379Z,78.24
2023-03-11T00:10:33.378Z,78.97
2023-03-11T00:11:33.358Z,79.07
2023-03-11T00:12:33.349Z,78.72
2023-03-11T00:13:33.389Z,78.83
2023-03-11T00:14:33.340Z,78.41
2023-03-11T00:15:33.360Z,79.28
2023-03-11T00:16:33.360Z,79.07
2023-03-11T00:17:33.905Z,78.34
2023-03-11T00:18:33.312Z,79.00
2023-03-11T00:19:33.296Z,78.55
2023-03-11T00:20:33.304Z,78.76
2023-03-11T00:21:33.277Z,78.66
2023-03-11T00:22:33.273Z,79.07
2023-03-11T00:24:26.187Z,79.17
2023-03-11T00:25:26.146Z,78.28
2023-03-11T00:26:26.118Z,79.07
2023-03-11T00:27:26.116Z,79.00
2023-03-11T00:28:27.216Z,78.14
2023-03-11T00:29:27.203Z,78.28
2023-03-11T00:30:27.190Z,76.57
2023-03-11T00:31:27.170Z,77.72
2023-03-11T00:32:27.193Z,78.17
2023-03-11T00:33:27.162Z,77.61
2023-03-11T00:34:27.170Z,77.09
2023-03-11T00:35:27.162Z,76.99
2023-03-11T00:36:27.128Z,76.68
2023-03-11T00:37:27.120Z,76.30
2023-03-11T00:38:27.160Z,76.89
2023-03-11T00:39:27.119Z,76.47
2023-03-11T00:40:27.114Z,77.83
2023-03-11T00:41:27.096Z,77.93
2023-03-11T00:42:28.087Z,76.68
2023-03-11T00:43:27.074Z,76.99
2023-03-11T00:44:27.062Z,76.78
2023-03-11T00:45:27.055Z,76.47
2023-03-11T00:46:27.053Z,76.57
2023-03-11T00:47:27.037Z,76.47
2023-03-11T00:48:27.034Z,77.20
2023-03-11T00:49:27.036Z,76.78
2023-03-11T00:50:27.041Z,76.99
2023-03-11T00:51:27.016Z,76.89
2023-03-11T00:52:27.004Z,76.68
2023-03-11T00:53:27.054Z,76.99
2023-03-11T00:54:26.990Z,76.68
2023-03-11T00:55:26.986Z,76.78
2023-03-11T00:56:26.986Z,76.78
2023-03-11T00:57:26.956Z,76.78
2023-03-11T00:58:26.956Z,77.30
2023-03-11T00:59:27.481Z,76.99
2023-03-11T01:00:26.931Z,76.57
2023-03-11T01:01:27.621Z,76.89
2023-03-11T01:02:26.921Z,76.89
2023-03-11T01:03:26.929Z,76.78
2023-03-11T01:04:26.944Z,76.68
2023-03-11T01:05:26.943Z,76.68
2023-03-11T01:06:35.784Z,76.57
2023-03-11T01:07:28.884Z,76.89
2023-03-11T01:08:26.882Z,76.68
2023-03-11T01:09:26.883Z,77.72
2023-03-11T01:10:26.861Z,76.89
2023-03-11T01:11:26.850Z,76.99
2023-03-11T01:12:26.858Z,76.99
2023-03-11T01:13:27.866Z,76.99
2023-03-11T01:14:26.832Z,76.89
2023-03-11T01:15:27.604Z,76.89
2023-03-11T01:16:26.832Z,76.78
2023-03-11T01:17:26.812Z,76.37
2023-03-11T01:18:26.793Z,76.57
2023-03-11T01:19:26.792Z,77.51
2023-03-11T01:20:26.787Z,78.14
2023-03-11T01:21:26.838Z,78.34
2023-03-11T01:22:26.756Z,78.14
2023-03-11T01:23:26.759Z,77.93
2023-03-11T01:24:26.747Z,77.93
2023-03-11T01:25:26.761Z,78.24
2023-03-11T01:26:26.730Z,78.97
2023-03-11T01:27:26.735Z,77.93
2023-03-11T01:28:26.739Z,78.66
2023-03-11T01:29:26.756Z,77.83
2023-03-11T01:30:26.707Z,76.57
2023-03-11T01:31:26.733Z,77.93
2023-03-11T01:32:27.714Z,77.75
2023-03-11T01:33:26.673Z,77.83
2023-03-11T01:34:26.659Z,77.65
2023-03-11T01:35:26.706Z,77.55
2023-03-11T01:36:26.658Z,77.75
2023-03-11T01:37:27.507Z,77.65
2023-03-11T01:38:26.675Z,77.44
2023-03-11T01:39:26.649Z,76.99
2023-03-11T01:40:26.630Z,76.72
2023-03-11T01:41:26.633Z,76.61
2023-03-11T01:42:26.604Z,76.92
2023-03-11T01:43:26.602Z,76.51
2023-03-11T01:44:26.598Z,76.92
2023-03-11T01:45:26.593Z,76.61
2023-03-11T01:46:26.663Z,77.03
2023-03-11T01:47:26.550Z,76.82
2023-03-11T01:48:27.551Z,76.40
2023-03-11T01:49:26.568Z,77.55
2023-03-11T01:50:26.565Z,77.61
2023-03-11T01:51:26.540Z,77.55
2023-03-11T01:52:27.546Z,76.51
2023-03-11T01:53:26.514Z,76.78
2023-03-11T01:54:26.530Z,76.82
2023-03-11T01:55:26.559Z,76.78
2023-03-11T01:56:26.516Z,76.78
2023-03-11T01:57:26.483Z,76.57
2023-03-11T01:58:27.481Z,76.92
2023-03-11T01:59:26.480Z,76.47
2023-03-11T02:00:26.477Z,77.83
2023-03-11T02:01:26.552Z,78.14
2023-03-11T02:02:26.459Z,76.57
2023-03-11T02:03:26.445Z,76.26
2023-03-11T02:04:26.467Z,76.47
2023-03-11T02:05:26.494Z,76.99
2023-03-11T02:06:26.440Z,76.16
2023-03-11T02:07:26.423Z,76.06
2023-03-11T02:08:26.408Z,75.95
2023-03-11T02:09:27.164Z,75.98
2023-03-11T02:10:26.403Z,76.16
2023-03-11T02:11:26.398Z,76.89
2023-03-11T02:12:26.387Z,76.06
2023-03-11T02:13:26.368Z,75.22
2023-03-11T02:14:26.362Z,74.77
2023-03-11T02:15:26.353Z,76.09
2023-03-11T02:16:26.438Z,75.92
2023-03-11T02:17:26.350Z,75.36
2023-03-11T02:18:26.422Z,74.87
2023-03-11T02:19:26.328Z,74.63
2023-03-11T02:20:26.316Z,73.10
2023-03-11T02:21:26.316Z,72.76
2023-03-11T02:22:26.309Z,72.48
2023-03-11T02:23:26.311Z,71.58
2023-03-11T02:24:26.282Z,71.16
2023-03-11T02:25:26.279Z,72.20
2023-03-11T02:26:26.269Z,71.89
2023-03-11T02:27:26.263Z,73.00
2023-03-11T02:28:26.241Z,73.00
2023-03-11T02:29:26.258Z,73.14
2023-03-11T02:30:26.236Z,73.73
2023-03-11T02:31:26.296Z,73.21
2023-03-11T02:32:26.279Z,73.10
2023-03-11T02:33:26.220Z,73.03
2023-03-11T02:34:26.223Z,73.55
2023-03-11T02:35:26.194Z,73.52
2023-03-11T02:36:26.185Z,73.83
2023-03-11T02:37:26.202Z,73.73
2023-03-11T02:38:26.177Z,73.52
2023-03-11T02:39:27.081Z,73.73
2023-03-11T02:40:26.169Z,72.17
2023-03-11T02:41:26.140Z,72.41
2023-03-11T02:42:26.135Z,72.48
2023-03-11T02:43:26.161Z,73.32
2023-03-11T02:44:26.108Z,72.48
2023-03-11T02:45:26.114Z,71.99
2023-03-11T02:46:26.147Z,71.33
2023-03-11T02:47:26.115Z,71.05
2023-03-11T02:48:26.102Z,70.84
2023-03-11T02:49:26.589Z,71.16
2023-03-11T02:50:26.065Z,72.09
2023-03-11T02:51:26.057Z,72.41
2023-03-11T02:52:26.064Z,72.20
2023-03-11T02:53:26.057Z,72.06
2023-03-11T02:54:26.032Z,71.96
2023-03-11T02:55:26.031Z,72.17
2023-03-11T02:56:26.024Z,72.62
2023-03-11T02:57:26.011Z,71.44
2023-03-11T02:58:26.052Z,71.23
2023-03-11T02:59:25.996Z,71.02
2023-03-11T03:00:25.982Z,71.05
2023-03-11T03:01:25.971Z,70.43
2023-03-11T03:02:26.592Z,70.53
2023-03-11T03:03:25.973Z,70.53
2023-03-11T03:04:26.025Z,71.16
2023-03-11T03:05:25.961Z,71.47
2023-03-11T03:06:25.935Z,71.58
2023-03-11T03:07:25.937Z,72.30
2023-03-11T03:08:25.924Z,71.68
2023-03-11T03:09:25.942Z,70.84
2023-03-11T03:10:25.906Z,70.74
2023-03-11T03:11:26.491Z,70.95
2023-03-11T03:12:25.903Z,71.47
2023-03-11T03:13:25.909Z,72.30
2023-03-11T03:14:25.885Z,72.20
2023-03-11T03:15:25.874Z,72.58
2023-03-11T03:16:25.915Z,72.41
2023-03-11T03:17:26.605Z,72.20
2023-03-11T03:18:25.835Z,72.20
2023-03-11T03:19:25.854Z,71.58
2023-03-11T03:20:25.848Z,72.09
2023-03-11T03:21:25.825Z,72.30
2023-03-11T03:22:25.816Z,72.83
2023-03-11T03:23:25.800Z,72.41
2023-03-11T03:24:25.828Z,72.75
2023-03-11T03:25:25.806Z,72.51
2023-03-11T03:26:25.769Z,73.14
2023-03-11T03:27:26.825Z,72.93
2023-03-11T03:28:25.765Z,73.14
2023-03-11T03:29:25.768Z,72.86
2023-03-11T03:30:25.739Z,73.17
2023-03-11T03:31:25.811Z,73.03
2023-03-11T03:32:25.784Z,73.14
2023-03-11T03:33:25.717Z,73.27
2023-03-11T03:34:26.105Z,73.24
2023-03-11T03:35:25.714Z,73.38
2023-03-11T03:36:25.796Z,73.80
2023-03-11T03:37:26.572Z,73.27
2023-03-11T03:38:25.698Z,73.27
2023-03-11T03:39:25.698Z,73.76
2023-03-11T03:40:25.678Z,73.49
2023-03-11T03:41:25.668Z,73.27
2023-03-11T03:42:25.649Z,73.86
2023-03-11T03:43:25.669Z,74.18
2023-03-11T03:44:25.663Z,73.55
2023-03-11T03:45:25.646Z,74.84
2023-03-11T03:46:26.588Z,74.11
2023-03-11T03:47:25.666Z,74.84
2023-03-11T03:48:25.618Z,74.18
2023-03-11T03:49:26.583Z,74.60
2023-03-11T03:50:25.612Z,74.07
2023-03-11T03:51:25.590Z,74.74
2023-03-11T03:52:25.603Z,73.55
2023-03-11T03:53:25.586Z,74.21
2023-03-11T03:54:25.585Z,75.05
2023-03-11T03:55:26.513Z,74.74
2023-03-11T03:56:26.506Z,73.97
2023-03-11T03:57:25.541Z,74.11
2023-03-11T03:58:25.554Z,74.63
2023-03-11T03:59:25.535Z,74.52
2023-03-11T04:00:25.519Z,74.95
2023-03-11T04:01:25.512Z,74.70
2023-03-11T04:02:26.566Z,74.42
2023-03-11T04:03:25.536Z,74.01
2023-03-11T04:04:25.510Z,74.07
2023-03-11T04:05:26.087Z,73.80
2023-03-11T04:06:25.497Z,74.11
2023-03-11T04:07:26.009Z,74.32
2023-03-11T04:08:25.503Z,73.90
2023-03-11T04:09:28.013Z,74.63
2023-03-11T04:10:25.452Z,73.90
2023-03-11T04:11:25.457Z,74.95
2023-03-11T04:12:25.448Z,74.74
2023-03-11T04:13:25.429Z,74.70
2023-03-11T04:14:25.417Z,74.60
2023-03-11T04:15:25.409Z,75.01
2023-03-11T04:16:26.485Z,74.84
2023-03-11T04:17:25.400Z,75.26
2023-03-11T04:18:26.015Z,75.78
2023-03-11T04:19:25.389Z,76.72
2023-03-11T04:20:25.376Z,76.92
2023-03-11T04:21:25.366Z,76.92
2023-03-11T04:22:25.365Z,77.13
2023-03-11T04:23:25.366Z,76.92
2023-03-11T04:24:25.346Z,77.55
2023-03-11T04:25:25.348Z,77.97
2023-03-11T04:26:25.326Z,77.86
2023-03-11T04:27:25.358Z,77.76
2023-03-11T04:28:25.309Z,77.34
2023-03-11T04:29:25.296Z,77.86
2023-03-11T04:30:26.308Z,77.66
2023-03-11T04:31:25.283Z,78.28
2023-03-11T04:32:25.306Z,78.38
2023-03-11T04:33:25.270Z,78.49
2023-03-11T04:34:25.265Z,78.07
2023-03-11T04:35:25.324Z,78.07
2023-03-11T04:36:25.244Z,78.91
2023-03-11T04:37:25.239Z,79.01
2023-03-11T04:38:25.225Z,79.11
2023-03-11T04:39:25.243Z,79.32
2023-03-11T04:40:25.249Z,78.52
2023-03-11T04:41:25.207Z,79.11
2023-03-11T04:42:25.204Z,78.28
2023-03-11T04:43:25.173Z,79.22
2023-03-11T04:44:26.238Z,79.01
2023-03-11T04:45:25.190Z,78.80
2023-03-11T04:46:26.170Z,78.59
2023-03-11T04:47:25.167Z,78.49
2023-03-11T04:48:25.154Z,78.94
2023-03-11T04:49:25.173Z,79.11
2023-03-11T04:50:25.131Z,78.38
2023-03-11T04:51:25.125Z,78.42
2023-03-11T04:52:25.123Z,80.30
2023-03-11T04:53:25.153Z,79.53
2023-03-11T04:54:25.113Z,79.74
2023-03-11T04:55:25.101Z,79.32
2023-03-11T04:56:25.094Z,79.94
2023-03-11T04:57:25.093Z,79.63
2023-03-11T04:58:25.079Z,78.63
2023-03-11T04:59:25.084Z,79.57
2023-03-11T05:00:25.248Z,79.05
2023-03-11T05:01:25.641Z,79.22
2023-03-11T05:02:25.045Z,79.74
2023-03-11T05:03:25.147Z,79.74
2023-03-11T05:04:25.048Z,79.32
2023-03-11T05:05:25.014Z,80.05
2023-03-11T05:06:25.009Z,79.74
2023-03-11T05:07:25.002Z,79.36
2023-03-11T05:08:25.010Z,79.67
2023-03-11T05:09:25.007Z,78.94
2023-03-11T05:10:24.988Z,79.53
2023-03-11T05:11:24.980Z,79.67
2023-03-11T05:12:24.964Z,79.98
2023-03-11T05:13:24.955Z,79.67
2023-03-11T05:14:24.957Z,80.51
2023-03-11T05:15:24.942Z,79.67
2023-03-11T05:16:25.064Z,80.51
2023-03-11T05:17:24.935Z,80.19
2023-03-11T05:18:24.932Z,80.09
2023-03-11T05:19:24.909Z,79.57
2023-03-11T05:20:24.910Z,80.19
2023-03-11T05:21:24.918Z,79.57
2023-03-11T05:22:24.912Z,80.40
2023-03-11T05:23:24.897Z,79.88
2023-03-11T05:24:24.870Z,80.30
2023-03-11T05:25:24.862Z,80.40
2023-03-11T05:26:25.597Z,80.51
2023-03-11T05:27:24.840Z,79.98
2023-03-11T05:28:24.851Z,80.09
2023-03-11T05:29:24.844Z,80.09
2023-03-11T05:30:24.826Z,80.19
2023-03-11T05:31:24.869Z,80.09
2023-03-11T05:32:24.890Z,80.09
2023-03-11T05:33:24.800Z,79.98
2023-03-11T05:34:24.821Z,79.67
2023-03-11T05:35:24.806Z,80.09
2023-03-11T05:36:25.594Z,80.51
2023-03-11T05:37:24.761Z,80.09
2023-03-11T05:38:25.525Z,80.40
2023-03-11T05:39:24.784Z,80.36
2023-03-11T05:40:24.768Z,80.26
2023-03-11T05:41:24.778Z,80.82
2023-03-11T05:42:24.785Z,80.51
2023-03-11T05:43:24.739Z,81.02
2023-03-11T05:44:24.766Z,80.61
2023-03-11T05:45:24.729Z,80.61
2023-03-11T05:46:24.787Z,80.82
2023-03-11T05:47:24.695Z,81.02
2023-03-11T05:48:24.701Z,80.71
2023-03-11T05:49:25.530Z,80.92
2023-03-11T05:50:24.683Z,80.82
2023-03-11T05:51:24.668Z,81.76
2023-03-11T05:52:24.673Z,81.45
2023-03-11T05:53:24.656Z,81.13
2023-03-11T05:54:24.654Z,81.02
2023-03-11T05:55:24.650Z,81.23
2023-03-11T05:56:24.634Z,81.23
2023-03-11T05:57:24.621Z,80.51
2023-03-11T05:58:24.676Z,81.16
2023-03-11T05:59:24.606Z,81.13
2023-03-11T06:00:25.523Z,81.79
2023-03-11T06:01:24.607Z,81.55
2023-03-11T06:02:24.612Z,81.45
2023-03-11T06:03:24.582Z,81.23
2023-03-11T06:04:24.678Z,81.86
2023-03-11T06:05:24.666Z,81.34
2023-03-11T06:06:27.040Z,81.23
2023-03-11T06:07:24.538Z,81.02
2023-03-11T06:08:25.571Z,80.71
2023-03-11T06:09:24.537Z,81.02
2023-03-11T06:10:24.528Z,80.40
2023-03-11T06:11:25.040Z,80.36
2023-03-11T06:12:24.508Z,80.16
2023-03-11T06:13:24.498Z,80.36
2023-03-11T06:14:24.524Z,79.67
2023-03-11T06:15:24.495Z,80.30
2023-03-11T06:16:24.524Z,80.40
2023-03-11T06:17:24.477Z,80.47
2023-03-11T06:18:24.457Z,80.57
2023-03-11T06:19:24.450Z,80.26
2023-03-11T06:20:24.469Z,79.94
2023-03-11T06:21:24.444Z,79.74
2023-03-11T06:22:24.506Z,79.84
2023-03-11T06:23:24.472Z,80.05
2023-03-11T06:24:24.499Z,79.67
2023-03-11T06:25:24.417Z,79.94
2023-03-11T06:26:24.403Z,79.43
2023-03-11T06:27:24.403Z,79.49
2023-03-11T06:28:24.414Z,79.60
2023-03-11T06:29:24.420Z,80.26
2023-03-11T06:30:24.380Z,79.08
2023-03-11T06:31:25.500Z,79.43
2023-03-11T06:32:24.414Z,79.18
2023-03-11T06:33:24.351Z,78.80
2023-03-11T06:34:24.349Z,79.22
2023-03-11T06:35:24.329Z,79.63
2023-03-11T06:36:24.337Z,79.91
2023-03-11T06:37:24.321Z,79.60
2023-03-11T06:38:24.344Z,78.66
2023-03-11T06:39:24.308Z,78.87
2023-03-11T06:40:24.294Z,78.87
2023-03-11T06:41:24.284Z,79.49
2023-03-11T06:42:24.284Z,78.66
2023-03-11T06:43:24.294Z,79.60
2023-03-11T06:44:24.276Z,78.34
2023-03-11T06:45:24.301Z,78.34
2023-03-11T06:46:24.256Z,78.63
2023-03-11T06:47:24.242Z,77.93
2023-03-11T06:48:24.232Z,77.93
2023-03-11T06:49:24.225Z,77.83
2023-03-11T06:50:24.223Z,77.27
2023-03-11T06:51:24.218Z,77.48
2023-03-11T06:52:24.206Z,77.89
2023-03-11T06:53:24.191Z,77.06
2023-03-11T06:54:24.190Z,76.47
2023-03-11T06:55:24.169Z,76.89
2023-03-11T06:56:24.211Z,77.06
2023-03-11T06:57:24.155Z,76.57
2023-03-11T06:58:24.145Z,77.93
2023-03-11T06:59:24.142Z,78.45
2023-03-11T07:00:24.139Z,78.45
2023-03-11T07:01:24.215Z,78.66
2023-03-11T07:02:24.116Z,78.20
2023-03-11T07:03:25.102Z,77.89
2023-03-11T07:04:24.676Z,78.34
2023-03-11T07:05:24.108Z,78.56
2023-03-11T07:06:24.101Z,78.80
2023-03-11T07:07:24.099Z,80.36
2023-03-11T07:08:24.068Z,80.16
2023-03-11T07:09:24.074Z,80.64
2023-03-11T07:10:24.074Z,81.05
2023-03-11T07:11:24.058Z,80.95
2023-03-11T07:12:24.048Z,80.85
2023-03-11T07:13:24.054Z,80.95
2023-03-11T07:14:24.026Z,80.64
2023-03-11T07:15:24.040Z,80.02
2023-03-11T07:16:24.123Z,80.71
2023-03-11T07:17:24.003Z,79.80
2023-03-11T07:18:24.001Z,79.91
2023-03-11T07:19:24.000Z,80.74
2023-03-11T07:20:23.983Z,80.29
2023-03-11T07:21:24.009Z,80.50
2023-03-11T07:22:23.967Z,81.23
2023-03-11T07:23:23.968Z,80.88
2023-03-11T07:24:23.973Z,80.40
2023-03-11T07:25:24.441Z,78.80
2023-03-11T07:26:23.949Z,78.49
2023-03-11T07:27:23.941Z,78.76
2023-03-11T07:28:23.921Z,78.24
2023-03-11T07:29:23.911Z,78.55
2023-03-11T07:30:23.913Z,78.03
2023-03-11T07:31:23.955Z,77.61
2023-03-11T07:32:23.965Z,76.89
2023-03-11T07:33:23.887Z,75.85
2023-03-11T07:34:23.865Z,75.22
2023-03-11T07:35:23.865Z,75.40
2023-03-11T07:36:23.899Z,74.49
2023-03-11T07:37:23.868Z,74.11
2023-03-11T07:38:23.858Z,74.63
2023-03-11T07:39:23.832Z,74.66
2023-03-11T07:40:23.824Z,74.98
2023-03-11T07:41:23.829Z,74.35
2023-03-11T07:42:23.812Z,73.32
2023-03-11T07:43:26.540Z,72.89
2023-03-11T07:44:23.782Z,73.42
2023-03-11T07:45:23.805Z,73.69
2023-03-11T07:46:23.862Z,73.10
2023-03-11T07:47:23.771Z,74.21
2023-03-11T07:48:23.754Z,73.94
2023-03-11T07:49:24.540Z,73.14
2023-03-11T07:50:23.764Z,73.14
2023-03-11T07:51:23.770Z,73.77
2023-03-11T07:52:23.735Z,73.11
2023-03-11T07:53:23.725Z,73.42
2023-03-11T07:54:23.722Z,73.18
2023-03-11T07:55:23.708Z,72.45
2023-03-11T07:56:23.696Z,72.83
2023-03-11T07:57:23.688Z,72.21
2023-03-11T07:58:23.681Z,70.65
2023-03-11T07:59:23.675Z,69.30
2023-03-11T08:00:23.666Z,69.09
2023-03-11T08:01:23.672Z,68.68
2023-03-11T08:02:24.680Z,69.09
2023-03-11T08:03:23.660Z,69.09
2023-03-11T08:04:23.682Z,68.78
2023-03-11T08:05:24.630Z,69.09
2023-03-11T08:06:24.630Z,68.57
2023-03-11T08:07:23.645Z,68.57
2023-03-11T08:08:23.623Z,68.37
2023-03-11T08:09:23.626Z,66.50
2023-03-11T08:10:23.608Z,66.45
2023-03-11T08:11:23.579Z,67.08
2023-03-11T08:12:23.580Z,68.04
2023-03-11T08:13:23.561Z,68.32
2023-03-11T08:14:25.142Z,68.63
2023-03-11T08:15:23.716Z,68.23
2023-03-11T08:16:23.542Z,67.16
2023-03-11T08:17:23.520Z,65.34
2023-03-11T08:18:24.489Z,63.93
2023-03-11T08:19:23.591Z,63.93
2023-03-11T08:20:23.589Z,64.00
2023-03-11T08:21:23.502Z,63.53
2023-03-11T08:22:23.502Z,59.50
2023-03-11T08:23:23.489Z,58.04
2023-03-11T08:24:23.491Z,57.53
2023-03-11T08:25:23.461Z,57.32
2023-03-11T08:26:23.459Z,58.51
2023-03-11T08:27:26.044Z,58.90
2023-03-11T08:28:24.443Z,59.03
2023-03-11T08:29:23.540Z,59.03
2023-03-11T08:30:23.407Z,59.37
2023-03-11T08:31:23.462Z,59.99
2023-03-11T08:33:30.298Z,59.30
2023-03-11T08:34:30.310Z,59.61
2023-03-11T08:35:31.417Z,61.29
2023-03-11T08:36:31.349Z,60.74
2023-03-11T08:37:31.329Z,61.78
2023-03-11T08:38:31.384Z,61.26
2023-03-11T08:39:31.369Z,60.74
2023-03-11T08:40:31.312Z,59.50
2023-03-11T08:41:31.298Z,59.32
2023-03-11T08:42:31.289Z,60.80
2023-03-11T08:43:31.294Z,60.70
2023-03-11T08:44:31.268Z,60.83
2023-03-11T08:45:31.294Z,61.27
2023-03-11T08:46:31.310Z,60.86
2023-03-11T08:47:31.235Z,60.68
2023-03-11T08:48:31.253Z,62.13
2023-03-11T08:49:31.220Z,61.22
2023-03-11T08:50:33.454Z,61.25
2023-03-11T08:51:31.250Z,61.74
2023-03-11T08:52:32.136Z,61.40
2023-03-11T08:53:32.688Z,60.68
2023-03-11T08:54:31.183Z,60.68
2023-03-11T08:55:31.372Z,59.74
2023-03-11T08:56:31.209Z,59.74
2023-03-11T08:57:31.223Z,59.64
2023-03-11T08:58:31.181Z,59.77
2023-03-11T08:59:31.164Z,59.77
2023-03-11T09:00:32.193Z,59.77
2023-03-11T09:01:31.156Z,59.45
2023-03-11T09:02:31.181Z,59.66
2023-03-11T09:03:31.114Z,59.48
2023-03-11T09:04:31.126Z,59.77
2023-03-11T09:05:32.146Z,58.11
2023-03-11T09:06:31.105Z,57.98
2023-03-11T09:07:31.093Z,55.48
2023-03-11T09:08:31.088Z,55.38
2023-03-11T09:09:31.660Z,56.41
2023-03-11T09:10:32.700Z,57.24
2023-03-11T09:11:31.056Z,57.12
2023-03-11T09:12:31.037Z,57.12
2023-03-11T09:13:31.050Z,56.91
2023-03-11T09:14:31.027Z,56.16
2023-03-11T09:15:31.029Z,56.55
2023-03-11T09:16:31.094Z,55.20
2023-03-11T09:17:31.027Z,55.58
2023-03-11T09:18:31.010Z,54.65
2023-03-11T09:19:30.982Z,54.44
2023-03-11T09:20:30.977Z,55.17
2023-03-11T09:21:31.073Z,54.63
2023-03-11T09:22:30.980Z,52.97
2023-03-11T09:23:30.952Z,50.07
2023-03-11T09:24:30.948Z,52.12
2023-03-11T09:25:30.957Z,52.01
2023-03-11T09:26:30.935Z,52.09
2023-03-11T09:27:30.927Z,52.20
2023-03-11T09:28:30.911Z,52.17
2023-03-11T09:29:30.931Z,52.69
2023-03-11T09:30:30.916Z,52.07
2023-03-11T09:31:30.891Z,51.97
2023-03-11T09:32:30.916Z,51.94
2023-03-11T09:33:30.910Z,50.93
2023-03-11T09:34:31.718Z,50.51
2023-03-11T09:35:30.873Z,52.20
2023-03-11T09:36:30.883Z,51.57
2023-03-11T09:37:31.632Z,52.48
2023-03-11T09:38:34.628Z,52.40
2023-03-11T09:39:30.838Z,52.28
2023-03-11T09:40:30.830Z,52.48
2023-03-11T09:41:30.803Z,51.97
2023-03-11T09:42:30.800Z,52.98
2023-03-11T09:43:30.817Z,53.18
2023-03-11T09:44:30.789Z,52.77
2023-03-11T09:45:30.790Z,52.25
2023-03-11T09:46:30.789Z,52.25
2023-03-11T09:47:32.719Z,52.36
2023-03-11T09:48:31.625Z,52.25
2023-03-11T09:49:30.746Z,53.20
2023-03-11T09:50:30.748Z,53.12
2023-03-11T09:51:30.727Z,53.12
2023-03-11T09:52:30.725Z,53.31
2023-03-11T09:53:30.708Z,54.01
2023-03-11T09:54:30.703Z,53.39
2023-03-11T09:55:30.697Z,53.34
2023-03-11T09:56:30.696Z,52.31
2023-03-11T09:57:31.664Z,53.13
2023-03-11T09:58:30.673Z,52.10
2023-03-11T09:59:30.766Z,52.49
2023-03-11T10:00:30.671Z,52.05
2023-03-11T10:01:30.643Z,51.02
2023-03-11T10:02:30.774Z,50.40
2023-03-11T10:03:30.652Z,49.99
2023-03-11T10:04:30.607Z,49.80
2023-03-11T10:05:31.611Z,51.07
2023-03-11T10:06:30.615Z,50.37
2023-03-11T10:07:30.590Z,51.32
2023-03-11T10:08:30.582Z,50.90
2023-03-11T10:09:30.584Z,51.50
2023-03-11T10:10:30.618Z,51.63
2023-03-11T10:11:30.582Z,51.55
2023-03-11T10:12:30.564Z,52.28
2023-03-11T10:13:30.568Z,52.17
2023-03-11T10:14:30.544Z,52.87
2023-03-11T10:15:30.555Z,52.33
2023-03-11T10:16:31.283Z,51.79
2023-03-11T10:17:30.520Z,51.89
2023-03-11T10:18:30.527Z,51.87
2023-03-11T10:19:30.489Z,51.48
2023-03-11T10:20:30.503Z,52.02
2023-03-11T10:21:30.498Z,52.51
2023-03-11T10:22:30.489Z,52.20
2023-03-11T10:23:30.465Z,52.10
2023-03-11T10:24:31.151Z,51.97
2023-03-11T10:25:30.437Z,52.39
2023-03-11T10:26:30.459Z,51.66
2023-03-11T10:27:30.454Z,51.07
2023-03-11T10:28:30.450Z,50.89
2023-03-11T10:29:30.431Z,52.17
2023-03-11T10:30:30.436Z,53.33
2023-03-11T10:31:30.462Z,54.58
2023-03-11T10:32:30.419Z,54.66
2023-03-11T10:33:30.400Z,54.63
2023-03-11T10:35:37.765Z,54.22
2023-03-11T10:36:37.740Z,54.43
2023-03-11T10:37:48.687Z,53.49
2023-03-11T10:38:38.731Z,55.25
2023-03-11T10:39:37.721Z,55.25
2023-03-11T10:40:37.700Z,55.35
2023-03-11T10:41:37.706Z,54.40
2023-03-11T10:42:37.710Z,53.86
2023-03-11T10:43:37.688Z,52.91
2023-03-11T10:44:37.677Z,52.98
2023-03-11T10:45:37.695Z,52.67
2023-03-11T10:46:37.719Z,52.86
2023-03-11T10:47:37.662Z,51.64
2023-03-11T10:48:37.654Z,52.36
2023-03-11T10:49:37.634Z,52.78
2023-03-11T10:50:37.626Z,52.03
2023-03-11T10:51:38.814Z,52.23
2023-03-11T10:52:38.706Z,51.49
2023-03-11T10:53:38.709Z,52.00
2023-03-11T10:54:38.691Z,51.59
2023-03-11T10:55:38.711Z,50.33
2023-03-11T10:56:38.687Z,50.54
2023-03-11T10:57:38.675Z,49.51
2023-03-11T10:58:38.659Z,50.62
2023-03-11T10:59:40.174Z,50.72
2023-03-11T11:00:39.605Z,50.38
2023-03-11T11:01:38.699Z,50.20
2023-03-11T11:02:38.650Z,50.41
2023-03-11T11:03:38.618Z,50.51
2023-03-11T11:04:40.187Z,49.19
2023-03-11T11:05:38.601Z,49.27
2023-03-11T11:06:38.620Z,48.76
2023-03-11T11:07:38.611Z,49.27
2023-03-11T11:08:39.184Z,48.55
2023-03-11T11:09:38.577Z,49.61
2023-03-11T11:10:38.562Z,48.86
2023-03-11T11:11:38.554Z,48.12
2023-03-11T11:12:38.567Z,48.86
2023-03-11T11:13:38.556Z,48.53
2023-03-11T11:14:38.589Z,48.45
2023-03-11T11:15:38.562Z,48.53
2023-03-11T11:16:38.567Z,48.33
2023-03-11T11:17:38.497Z,48.33
2023-03-11T11:18:38.513Z,47.81
2023-03-11T11:19:38.505Z,47.31
2023-03-11T11:20:38.511Z,48.68
2023-03-11T11:21:38.492Z,47.96
2023-03-11T11:22:38.485Z,46.51
2023-03-11T11:23:38.466Z,45.48
2023-03-11T11:24:38.495Z,45.07
2023-03-11T11:25:38.450Z,44.68
2023-03-11T11:26:38.443Z,46.02
2023-03-11T11:27:38.717Z,46.25
2023-03-11T11:28:41.707Z,46.74
2023-03-11T11:29:38.455Z,46.74
2023-03-11T11:30:38.458Z,46.51
2023-03-11T11:31:38.419Z,47.01
2023-03-11T11:32:38.478Z,46.98
2023-03-11T11:33:38.386Z,46.92
2023-03-11T11:34:38.388Z,47.46
2023-03-11T11:35:38.432Z,47.56
2023-03-11T11:36:38.363Z,47.77
2023-03-11T11:37:38.351Z,48.39
2023-03-11T11:38:38.343Z,47.56
2023-03-11T11:39:38.373Z,47.65
2023-03-11T11:40:38.324Z,47.36
2023-03-11T11:41:38.330Z,47.07
2023-03-11T11:42:38.350Z,48.41
2023-03-11T11:43:40.191Z,48.41
2023-03-11T11:44:38.280Z,47.38
2023-03-11T11:45:38.295Z,47.36
2023-03-11T11:46:38.277Z,47.05
2023-03-11T11:47:40.182Z,47.36
2023-03-11T11:48:38.246Z,48.39
2023-03-11T11:49:38.237Z,47.16
2023-03-11T11:50:38.242Z,48.19
2023-03-11T11:51:38.253Z,48.06
2023-03-11T11:52:38.240Z,48.37
2023-03-11T11:53:38.211Z,48.16
2023-03-11T11:54:38.199Z,48.19
2023-03-11T11:55:38.215Z,47.16
2023-03-11T11:56:38.188Z,47.16
2023-03-11T11:57:39.117Z,48.00
2023-03-11T11:58:38.192Z,48.19
2023-03-11T11:59:39.123Z,47.75
2023-03-11T12:00:38.763Z,47.75
2023-03-11T12:01:38.157Z,47.24
2023-03-11T12:02:38.200Z,47.13
2023-03-11T12:03:38.219Z,46.74
2023-03-11T12:04:38.112Z,47.36
2023-03-11T12:05:38.221Z,47.28
2023-03-11T12:06:38.114Z,46.56
2023-03-11T12:07:38.096Z,45.83
2023-03-11T12:08:38.078Z,44.82
2023-03-11T12:09:38.072Z,45.47
2023-03-11T12:10:38.061Z,45.05
2023-03-11T12:11:39.005Z,44.95
2023-03-11T12:12:38.048Z,45.59
2023-03-11T12:13:38.032Z,45.90
2023-03-11T12:14:38.035Z,46.29
2023-03-11T12:15:38.081Z,45.01
2023-03-11T12:16:38.042Z,45.23
2023-03-11T12:17:38.559Z,46.47
2023-03-11T12:18:39.010Z,47.41
2023-03-11T12:19:37.991Z,48.13
2023-03-11T12:20:39.752Z,48.54
2023-03-11T12:21:37.982Z,47.51
2023-03-11T12:22:37.981Z,48.15
2023-03-11T12:23:37.971Z,48.54
2023-03-11T12:24:37.948Z,48.66
2023-03-11T12:25:38.750Z,48.25
2023-03-11T12:26:37.965Z,48.66
2023-03-11T12:27:37.980Z,49.49
2023-03-11T12:28:37.962Z,49.29
2023-03-11T12:29:37.929Z,49.52
2023-03-11T12:30:37.945Z,48.90
2023-03-11T12:31:37.945Z,49.49
2023-03-11T12:32:37.925Z,48.05
2023-03-11T12:33:37.882Z,48.79
2023-03-11T12:34:38.708Z,48.77
2023-03-11T12:35:37.946Z,49.21
2023-03-11T12:36:37.873Z,50.24
2023-03-11T12:37:37.899Z,49.31
2023-03-11T12:38:37.868Z,49.49
2023-03-11T12:39:39.666Z,48.87
2023-03-11T12:40:37.861Z,48.15
2023-03-11T12:41:38.618Z,48.97
2023-03-11T12:42:39.707Z,48.56
2023-03-11T12:43:38.115Z,48.77
2023-03-11T12:45:10.160Z,49.41
2023-03-11T12:45:37.793Z,50.21
2023-03-11T12:46:37.810Z,50.11
2023-03-11T12:47:37.763Z,50.11
2023-03-11T12:48:37.776Z,49.60
2023-03-11T12:49:37.759Z,49.29
2023-03-11T12:50:37.817Z,49.29
2023-03-11T12:51:37.736Z,48.85
2023-03-11T12:52:37.737Z,48.65
2023-03-11T12:53:37.717Z,49.16
2023-03-11T12:54:37.732Z,48.52
2023-03-11T12:55:37.698Z,48.62